sensor_id;sensor_type;location;lat;lon;timestamp;P1;P2;P0
66336;PMS1003;53139;45.576;5.304;2023-05-07T00:02:16;0.75;0.75;0.50
66336;PMS1003;53139;45.576;5.304;2023-05-07T00:05:17;0.00;0.00;0.00
66336;PMS1003;53139;45.576;5.304;2023-05-07T00:08:18;3.00;1.00;1.00
66336;PMS1003;53139;45.576;5.304;2023-05-07T00:11:18;1.75;0.00;0.00
66336;PMS1003;53139;45.576;5.304;2023-05-07T00:14:19;1.00;1.00;1.00
66336;PMS1003;53139;45.576;5.304;2023-05-07T00:17:20;0.00;0.00;0.00
66336;PMS1003;53139;45.576;5.304;2023-05-07T00:20:21;0.75;0.75;0.75
66336;PMS1003;53139;45.576;5.304;2023-05-07T00:23:21;2.00;1.00;1.00
66336;PMS1003;53139;45.576;5.304;2023-05-07T00:26:22;0.25;0.25;0.25
66336;PMS1003;53139;45.576;5.304;2023-05-07T00:29:22;1.75;1.75;1.75
66336;PMS1003;53139;45.576;5.304;2023-05-07T00:32:23;1.00;1.00;1.00
66336;PMS1003;53139;45.576;5.304;2023-05-07T00:35:23;1.25;1.25;1.00
66336;PMS1003;53139;45.576;5.304;2023-05-07T00:38:24;2.25;1.00;1.00
66336;PMS1003;53139;45.576;5.304;2023-05-07T00:41:24;1.00;0.75;0.75
66336;PMS1003;53139;45.576;5.304;2023-05-07T00:44:25;1.25;1.00;1.00
66336;PMS1003;53139;45.576;5.304;2023-05-07T00:47:25;1.00;1.00;0.75
66336;PMS1003;53139;45.576;5.304;2023-05-07T00:50:29;1.00;1.00;0.00
66336;PMS1003;53139;45.576;5.304;2023-05-07T00:53:30;0.50;0.50;0.25
66336;PMS1003;53139;45.576;5.304;2023-05-07T00:56:30;0.25;0.25;0.25
66336;PMS1003;53139;45.576;5.304;2023-05-07T00:59:32;1.00;1.00;1.00
66336;PMS1003;53139;45.576;5.304;2023-05-07T01:02:32;1.75;0.00;0.00
66336;PMS1003;53139;45.576;5.304;2023-05-07T01:05:33;0.00;0.00;0.00
66336;PMS1003;53139;45.576;5.304;2023-05-07T01:08:34;0.50;0.50;0.25
66336;PMS1003;53139;45.576;5.304;2023-05-07T01:11:35;0.00;0.00;0.00
66336;PMS1003;53139;45.576;5.304;2023-05-07T01:14:35;1.00;1.00;0.00
66336;PMS1003;53139;45.576;5.304;2023-05-07T01:17:37;0.75;0.75;0.00
66336;PMS1003;53139;45.576;5.304;2023-05-07T01:20:39;0.00;0.00;0.00
66336;PMS1003;53139;45.576;5.304;2023-05-07T01:23:40;1.00;1.00;0.75
66336;PMS1003;53139;45.576;5.304;2023-05-07T01:26:42;0.00;0.00;0.00
66336;PMS1003;53139;45.576;5.304;2023-05-07T01:29:43;1.50;0.50;0.00
66336;PMS1003;53139;45.576;5.304;2023-05-07T01:32:56;2.75;1.00;1.00
66336;PMS1003;53139;45.576;5.304;2023-05-07T01:36:01;0.50;0.00;0.00
66336;PMS1003;53139;45.576;5.304;2023-05-07T01:39:06;1.00;1.00;1.00
66336;PMS1003;53139;45.576;5.304;2023-05-07T01:42:06;1.00;1.00;0.00
66336;PMS1003;53139;45.576;5.304;2023-05-07T01:45:07;0.75;0.75;0.75
66336;PMS1003;53139;45.576;5.304;2023-05-07T01:48:09;0.00;0.00;0.00
66336;PMS1003;53139;45.576;5.304;2023-05-07T01:51:10;1.00;1.00;1.00
66336;PMS1003;53139;45.576;5.304;2023-05-07T01:54:10;1.00;1.00;1.00
66336;PMS1003;53139;45.576;5.304;2023-05-07T01:57:11;1.00;0.75;0.75
66336;PMS1003;53139;45.576;5.304;2023-05-07T02:00:11;1.00;1.00;1.00
66336;PMS1003;53139;45.576;5.304;2023-05-07T02:03:12;0.50;0.00;0.00
66336;PMS1003;53139;45.576;5.304;2023-05-07T02:06:12;1.00;1.00;1.00
66336;PMS1003;53139;45.576;5.304;2023-05-07T02:09:13;0.75;0.75;0.75
66336;PMS1003;53139;45.576;5.304;2023-05-07T02:12:14;1.00;1.00;1.00
66336;PMS1003;53139;45.576;5.304;2023-05-07T02:15:15;1.00;1.00;0.50
66336;PMS1003;53139;45.576;5.304;2023-05-07T02:18:15;0.75;0.75;0.75
66336;PMS1003;53139;45.576;5.304;2023-05-07T02:21:16;2.25;1.00;1.00
66336;PMS1003;53139;45.576;5.304;2023-05-07T02:24:17;1.00;1.00;1.00
66336;PMS1003;53139;45.576;5.304;2023-05-07T02:27:17;2.25;1.00;1.00
66336;PMS1003;53139;45.576;5.304;2023-05-07T02:30:17;1.00;1.00;1.00
66336;PMS1003;53139;45.576;5.304;2023-05-07T02:33:18;0.75;0.75;0.75
66336;PMS1003;53139;45.576;5.304;2023-05-07T02:36:18;1.00;1.00;1.00
66336;PMS1003;53139;45.576;5.304;2023-05-07T02:39:19;1.00;1.00;1.00
66336;PMS1003;53139;45.576;5.304;2023-05-07T02:42:19;1.00;1.00;1.00
66336;PMS1003;53139;45.576;5.304;2023-05-07T02:45:20;1.25;1.25;1.00
66336;PMS1003;53139;45.576;5.304;2023-05-07T02:48:20;2.00;2.00;1.00
66336;PMS1003;53139;45.576;5.304;2023-05-07T02:51:21;1.00;1.00;1.00
66336;PMS1003;53139;45.576;5.304;2023-05-07T02:54:22;1.25;1.25;1.00
66336;PMS1003;53139;45.576;5.304;2023-05-07T02:57:23;1.00;1.00;1.00
66336;PMS1003;53139;45.576;5.304;2023-05-07T03:00:23;1.00;1.00;0.00
66336;PMS1003;53139;45.576;5.304;2023-05-07T03:03:24;1.00;1.00;1.00
66336;PMS1003;53139;45.576;5.304;2023-05-07T03:06:24;1.00;1.00;1.00
66336;PMS1003;53139;45.576;5.304;2023-05-07T03:09:26;1.00;1.00;1.00
66336;PMS1003;53139;45.576;5.304;2023-05-07T03:12:26;1.25;1.25;0.00
66336;PMS1003;53139;45.576;5.304;2023-05-07T03:15:26;1.00;1.00;1.00
66336;PMS1003;53139;45.576;5.304;2023-05-07T03:18:27;1.00;1.00;1.00
66336;PMS1003;53139;45.576;5.304;2023-05-07T03:21:27;1.25;1.25;1.00
66336;PMS1003;53139;45.576;5.304;2023-05-07T03:24:28;2.00;2.00;1.50
66336;PMS1003;53139;45.576;5.304;2023-05-07T03:27:28;1.50;1.50;1.50
66336;PMS1003;53139;45.576;5.304;2023-05-07T03:30:28;2.00;1.00;1.00
66336;PMS1003;53139;45.576;5.304;2023-05-07T03:33:29;1.00;1.00;1.00
66336;PMS1003;53139;45.576;5.304;2023-05-07T03:36:30;2.00;2.00;1.25
66336;PMS1003;53139;45.576;5.304;2023-05-07T03:39:30;1.25;1.00;0.75
66336;PMS1003;53139;45.576;5.304;2023-05-07T03:42:32;1.75;1.00;1.00
66336;PMS1003;53139;45.576;5.304;2023-05-07T03:45:32;0.50;0.50;0.00
66336;PMS1003;53139;45.576;5.304;2023-05-07T03:48:32;1.00;1.00;1.00
66336;PMS1003;53139;45.576;5.304;2023-05-07T03:51:33;1.25;1.25;1.00
66336;PMS1003;53139;45.576;5.304;2023-05-07T03:54:33;1.00;1.00;1.00
66336;PMS1003;53139;45.576;5.304;2023-05-07T03:57:33;1.00;1.00;1.00
66336;PMS1003;53139;45.576;5.304;2023-05-07T04:00:34;1.00;1.00;1.00
66336;PMS1003;53139;45.576;5.304;2023-05-07T04:03:38;3.00;2.00;2.00
66336;PMS1003;53139;45.576;5.304;2023-05-07T04:06:38;2.00;1.25;1.00
66336;PMS1003;53139;45.576;5.304;2023-05-07T04:09:38;3.50;2.50;2.25
66336;PMS1003;53139;45.576;5.304;2023-05-07T04:12:39;2.00;2.00;1.00
66336;PMS1003;53139;45.576;5.304;2023-05-07T04:15:39;1.50;1.50;1.25
66336;PMS1003;53139;45.576;5.304;2023-05-07T04:18:40;1.00;1.00;1.00
66336;PMS1003;53139;45.576;5.304;2023-05-07T04:21:40;2.00;1.00;1.00
66336;PMS1003;53139;45.576;5.304;2023-05-07T04:24:40;1.00;1.00;1.00
66336;PMS1003;53139;45.576;5.304;2023-05-07T04:27:41;1.00;1.00;1.00
66336;PMS1003;53139;45.576;5.304;2023-05-07T04:30:41;1.00;1.00;1.00
66336;PMS1003;53139;45.576;5.304;2023-05-07T04:33:41;1.25;1.25;1.25
66336;PMS1003;53139;45.576;5.304;2023-05-07T04:36:42;2.50;2.50;1.75
66336;PMS1003;53139;45.576;5.304;2023-05-07T04:39:43;1.00;1.00;1.00
66336;PMS1003;53139;45.576;5.304;2023-05-07T04:42:43;2.50;2.00;2.00
66336;PMS1003;53139;45.576;5.304;2023-05-07T04:45:43;2.00;2.00;1.25
66336;PMS1003;53139;45.576;5.304;2023-05-07T04:48:44;1.00;1.00;1.00
66336;PMS1003;53139;45.576;5.304;2023-05-07T04:51:44;2.00;2.00;2.00
66336;PMS1003;53139;45.576;5.304;2023-05-07T04:54:45;1.50;1.50;1.50
66336;PMS1003;53139;45.576;5.304;2023-05-07T04:57:45;5.00;2.50;2.00
66336;PMS1003;53139;45.576;5.304;2023-05-07T05:00:46;1.00;1.00;1.00
66336;PMS1003;53139;45.576;5.304;2023-05-07T05:03:46;1.75;1.75;1.00
66336;PMS1003;53139;45.576;5.304;2023-05-07T05:06:47;2.25;2.25;2.00
66336;PMS1003;53139;45.576;5.304;2023-05-07T05:09:47;2.75;2.75;1.75
66336;PMS1003;53139;45.576;5.304;2023-05-07T05:12:47;2.00;2.00;2.00
66336;PMS1003;53139;45.576;5.304;2023-05-07T05:15:48;2.00;2.00;1.25
66336;PMS1003;53139;45.576;5.304;2023-05-07T05:18:48;2.25;1.50;1.00
66336;PMS1003;53139;45.576;5.304;2023-05-07T05:21:48;2.75;2.00;2.00
66336;PMS1003;53139;45.576;5.304;2023-05-07T05:24:49;4.00;2.00;1.00
66336;PMS1003;53139;45.576;5.304;2023-05-07T05:27:49;1.00;1.00;1.00
66336;PMS1003;53139;45.576;5.304;2023-05-07T05:30:50;3.50;2.00;1.25
66336;PMS1003;53139;45.576;5.304;2023-05-07T05:33:50;2.25;1.75;1.25
66336;PMS1003;53139;45.576;5.304;2023-05-07T05:36:51;4.00;2.75;2.00
66336;PMS1003;53139;45.576;5.304;2023-05-07T05:39:51;4.75;3.00;3.00
66336;PMS1003;53139;45.576;5.304;2023-05-07T05:42:52;2.50;1.25;1.00
66336;PMS1003;53139;45.576;5.304;2023-05-07T05:45:53;2.50;2.50;2.00
66336;PMS1003;53139;45.576;5.304;2023-05-07T05:48:53;3.00;3.00;2.50
66336;PMS1003;53139;45.576;5.304;2023-05-07T05:51:53;1.00;0.50;0.00
66336;PMS1003;53139;45.576;5.304;2023-05-07T05:54:54;3.00;2.00;1.25
66336;PMS1003;53139;45.576;5.304;2023-05-07T05:57:54;1.75;1.50;1.50
66336;PMS1003;53139;45.576;5.304;2023-05-07T06:00:55;3.50;3.00;2.25
66336;PMS1003;53139;45.576;5.304;2023-05-07T06:03:56;2.50;2.00;2.00
66336;PMS1003;53139;45.576;5.304;2023-05-07T06:06:56;2.00;2.00;1.50
66336;PMS1003;53139;45.576;5.304;2023-05-07T06:09:57;3.25;2.25;2.00
66336;PMS1003;53139;45.576;5.304;2023-05-07T06:12:57;2.00;2.00;1.75
66336;PMS1003;53139;45.576;5.304;2023-05-07T06:15:58;3.50;3.00;2.75
66336;PMS1003;53139;45.576;5.304;2023-05-07T06:18:58;2.00;2.00;2.00
66336;PMS1003;53139;45.576;5.304;2023-05-07T06:21:58;2.00;2.00;1.00
66336;PMS1003;53139;45.576;5.304;2023-05-07T06:25:01;1.50;1.50;1.00
66336;PMS1003;53139;45.576;5.304;2023-05-07T06:28:01;2.00;2.00;2.00
66336;PMS1003;53139;45.576;5.304;2023-05-07T06:31:14;2.75;2.00;2.00
66336;PMS1003;53139;45.576;5.304;2023-05-07T06:34:16;2.50;2.00;1.00
66336;PMS1003;53139;45.576;5.304;2023-05-07T06:37:16;2.00;2.00;2.00
66336;PMS1003;53139;45.576;5.304;2023-05-07T06:40:17;2.00;2.00;1.50
66336;PMS1003;53139;45.576;5.304;2023-05-07T06:43:17;4.25;1.50;1.50
66336;PMS1003;53139;45.576;5.304;2023-05-07T06:46:17;2.00;2.00;1.25
66336;PMS1003;53139;45.576;5.304;2023-05-07T06:49:18;2.00;1.00;1.00
66336;PMS1003;53139;45.576;5.304;2023-05-07T06:52:18;2.75;2.00;1.75
66336;PMS1003;53139;45.576;5.304;2023-05-07T06:55:18;2.00;2.00;1.50
66336;PMS1003;53139;45.576;5.304;2023-05-07T06:58:19;0.50;0.50;0.50
66336;PMS1003;53139;45.576;5.304;2023-05-07T07:01:19;2.00;2.00;1.00
66336;PMS1003;53139;45.576;5.304;2023-05-07T07:04:20;2.00;2.00;1.25
66336;PMS1003;53139;45.576;5.304;2023-05-07T07:07:22;1.25;1.25;1.00
66336;PMS1003;53139;45.576;5.304;2023-05-07T07:10:23;1.75;0.75;0.75
66336;PMS1003;53139;45.576;5.304;2023-05-07T07:13:23;1.50;1.00;0.75
66336;PMS1003;53139;45.576;5.304;2023-05-07T07:16:24;2.00;2.00;1.75
66336;PMS1003;53139;45.576;5.304;2023-05-07T07:19:25;1.00;1.00;1.00
66336;PMS1003;53139;45.576;5.304;2023-05-07T07:22:25;2.00;2.00;1.50
66336;PMS1003;53139;45.576;5.304;2023-05-07T07:25:26;3.00;1.25;1.00
66336;PMS1003;53139;45.576;5.304;2023-05-07T07:28:26;2.00;2.00;1.00
66336;PMS1003;53139;45.576;5.304;2023-05-07T07:31:27;2.25;2.00;1.25
66336;PMS1003;53139;45.576;5.304;2023-05-07T07:34:27;1.00;1.00;1.00
66336;PMS1003;53139;45.576;5.304;2023-05-07T07:37:27;1.25;0.00;0.00
66336;PMS1003;53139;45.576;5.304;2023-05-07T07:40:28;0.00;0.00;0.00
66336;PMS1003;53139;45.576;5.304;2023-05-07T07:43:29;1.00;1.00;1.00
66336;PMS1003;53139;45.576;5.304;2023-05-07T07:46:29;1.00;1.00;1.00
66336;PMS1003;53139;45.576;5.304;2023-05-07T07:49:29;1.75;1.75;1.00
66336;PMS1003;53139;45.576;5.304;2023-05-07T07:52:30;1.00;1.00;1.00
66336;PMS1003;53139;45.576;5.304;2023-05-07T07:55:30;1.50;1.25;1.25
66336;PMS1003;53139;45.576;5.304;2023-05-07T07:58:32;1.25;1.00;1.00
66336;PMS1003;53139;45.576;5.304;2023-05-07T08:01:32;1.75;1.00;1.00
66336;PMS1003;53139;45.576;5.304;2023-05-07T08:04:32;1.00;1.00;1.00
66336;PMS1003;53139;45.576;5.304;2023-05-07T08:07:33;1.75;1.75;1.00
66336;PMS1003;53139;45.576;5.304;2023-05-07T08:10:33;1.00;1.00;1.00
66336;PMS1003;53139;45.576;5.304;2023-05-07T08:13:34;0.75;0.50;0.25
66336;PMS1003;53139;45.576;5.304;2023-05-07T08:16:35;1.50;1.50;1.50
66336;PMS1003;53139;45.576;5.304;2023-05-07T08:19:36;1.25;1.25;1.00
66336;PMS1003;53139;45.576;5.304;2023-05-07T08:22:36;2.00;1.00;1.00
66336;PMS1003;53139;45.576;5.304;2023-05-07T08:25:37;3.00;1.75;1.75
66336;PMS1003;53139;45.576;5.304;2023-05-07T08:28:37;1.00;1.00;1.00
66336;PMS1003;53139;45.576;5.304;2023-05-07T08:31:37;0.50;0.50;0.00
66336;PMS1003;53139;45.576;5.304;2023-05-07T08:34:41;2.25;1.25;1.00
66336;PMS1003;53139;45.576;5.304;2023-05-07T08:37:41;2.00;1.00;1.00
66336;PMS1003;53139;45.576;5.304;2023-05-07T08:40:41;3.50;1.75;1.00
66336;PMS1003;53139;45.576;5.304;2023-05-07T08:43:42;2.00;2.00;1.75
66336;PMS1003;53139;45.576;5.304;2023-05-07T08:46:48;2.75;1.50;1.25
66336;PMS1003;53139;45.576;5.304;2023-05-07T08:49:53;1.25;1.25;1.25
66336;PMS1003;53139;45.576;5.304;2023-05-07T08:52:55;2.25;2.00;1.50
66336;PMS1003;53139;45.576;5.304;2023-05-07T08:55:56;2.75;2.00;2.00
66336;PMS1003;53139;45.576;5.304;2023-05-07T08:58:58;2.00;2.00;1.50
66336;PMS1003;53139;45.576;5.304;2023-05-07T09:01:59;2.00;2.00;1.75
66336;PMS1003;53139;45.576;5.304;2023-05-07T09:04:59;3.00;3.00;2.00
66336;PMS1003;53139;45.576;5.304;2023-05-07T09:08:01;3.00;3.00;2.00
66336;PMS1003;53139;45.576;5.304;2023-05-07T09:11:02;1.25;1.25;1.00
66336;PMS1003;53139;45.576;5.304;2023-05-07T09:14:03;3.00;2.25;2.00
66336;PMS1003;53139;45.576;5.304;2023-05-07T09:17:04;2.00;2.00;1.25
66336;PMS1003;53139;45.576;5.304;2023-05-07T09:20:05;2.00;2.00;1.50
66336;PMS1003;53139;45.576;5.304;2023-05-07T09:23:06;2.50;2.00;2.00
66336;PMS1003;53139;45.576;5.304;2023-05-07T09:26:07;3.50;2.75;1.75
66336;PMS1003;53139;45.576;5.304;2023-05-07T09:29:11;3.00;2.25;2.25
66336;PMS1003;53139;45.576;5.304;2023-05-07T09:32:11;1.00;1.00;1.00
66336;PMS1003;53139;45.576;5.304;2023-05-07T09:35:16;1.00;1.00;1.00
66336;PMS1003;53139;45.576;5.304;2023-05-07T09:38:17;1.00;1.00;1.00
66336;PMS1003;53139;45.576;5.304;2023-05-07T09:41:21;1.25;0.00;0.00
66336;PMS1003;53139;45.576;5.304;2023-05-07T09:44:21;0.50;0.50;0.50
66336;PMS1003;53139;45.576;5.304;2023-05-07T09:47:23;1.00;1.00;0.75
66336;PMS1003;53139;45.576;5.304;2023-05-07T09:50:29;2.50;1.00;1.00
66336;PMS1003;53139;45.576;5.304;2023-05-07T09:53:35;0.75;0.75;0.75
66336;PMS1003;53139;45.576;5.304;2023-05-07T09:56:36;2.25;2.25;1.75
66336;PMS1003;53139;45.576;5.304;2023-05-07T09:59:42;2.75;1.75;0.75
66336;PMS1003;53139;45.576;5.304;2023-05-07T10:02:43;2.00;2.00;2.00
66336;PMS1003;53139;45.576;5.304;2023-05-07T10:05:48;3.00;1.50;1.00
66336;PMS1003;53139;45.576;5.304;2023-05-07T10:08:49;3.00;2.50;2.00
66336;PMS1003;53139;45.576;5.304;2023-05-07T10:11:52;2.00;2.00;2.00
66336;PMS1003;53139;45.576;5.304;2023-05-07T10:14:53;3.25;1.50;1.50
66336;PMS1003;53139;45.576;5.304;2023-05-07T10:17:55;3.75;2.50;1.75
66336;PMS1003;53139;45.576;5.304;2023-05-07T10:20:56;2.00;2.00;2.00
66336;PMS1003;53139;45.576;5.304;2023-05-07T10:24:25;3.75;3.75;2.00
66336;PMS1003;53139;45.576;5.304;2023-05-07T10:27:27;3.00;3.00;2.50
66336;PMS1003;53139;45.576;5.304;2023-05-07T10:34:07;3.25;2.50;2.00
66336;PMS1003;53139;45.576;5.304;2023-05-07T10:37:11;1.00;1.00;1.00
66336;PMS1003;53139;45.576;5.304;2023-05-07T10:40:12;0.75;0.75;0.75
66336;PMS1003;53139;45.576;5.304;2023-05-07T10:43:13;4.25;2.50;2.00
66336;PMS1003;53139;45.576;5.304;2023-05-07T10:49:17;2.50;2.50;2.00
66336;PMS1003;53139;45.576;5.304;2023-05-07T10:52:19;4.75;4.00;3.00
66336;PMS1003;53139;45.576;5.304;2023-05-07T10:55:21;4.00;4.00;3.00
66336;PMS1003;53139;45.576;5.304;2023-05-07T11:05:36;3.75;2.50;2.50
66336;PMS1003;53139;45.576;5.304;2023-05-07T11:08:21;36.00;28.75;19.50
66336;PMS1003;53139;45.576;5.304;2023-05-07T11:14:47;15.25;13.50;10.25
66336;PMS1003;53139;45.576;5.304;2023-05-07T11:17:52;4.00;4.00;3.25
66336;PMS1003;53139;45.576;5.304;2023-05-07T11:20:55;3.75;3.75;2.75
66336;PMS1003;53139;45.576;5.304;2023-05-07T11:23:57;3.75;2.50;2.25
66336;PMS1003;53139;45.576;5.304;2023-05-07T11:26:58;17.25;16.00;12.75
66336;PMS1003;53139;45.576;5.304;2023-05-07T11:29:59;23.50;21.00;15.25
66336;PMS1003;53139;45.576;5.304;2023-05-07T11:33:01;11.75;8.25;7.00
66336;PMS1003;53139;45.576;5.304;2023-05-07T11:36:02;6.25;6.25;4.75
66336;PMS1003;53139;45.576;5.304;2023-05-07T11:39:04;4.00;3.50;2.75
66336;PMS1003;53139;45.576;5.304;2023-05-07T11:42:07;4.75;4.75;3.75
66336;PMS1003;53139;45.576;5.304;2023-05-07T11:45:35;3.50;3.50;2.50
66336;PMS1003;53139;45.576;5.304;2023-05-07T11:48:37;4.25;4.25;2.75
66336;PMS1003;53139;45.576;5.304;2023-05-07T11:51:38;3.00;3.00;2.00
66336;PMS1003;53139;45.576;5.304;2023-05-07T11:54:39;3.75;3.75;3.25
66336;PMS1003;53139;45.576;5.304;2023-05-07T11:57:40;2.50;2.50;2.50
66336;PMS1003;53139;45.576;5.304;2023-05-07T12:00:54;4.25;4.25;2.50
66336;PMS1003;53139;45.576;5.304;2023-05-07T12:03:58;5.50;3.75;3.00
66336;PMS1003;53139;45.576;5.304;2023-05-07T12:07:05;2.50;2.50;2.50
66336;PMS1003;53139;45.576;5.304;2023-05-07T12:10:16;4.00;4.00;3.00
66336;PMS1003;53139;45.576;5.304;2023-05-07T12:13:20;3.50;3.50;3.00
66336;PMS1003;53139;45.576;5.304;2023-05-07T12:16:22;4.50;3.00;2.50
66336;PMS1003;53139;45.576;5.304;2023-05-07T12:19:23;3.50;3.50;2.50
66336;PMS1003;53139;45.576;5.304;2023-05-07T12:22:24;2.50;2.50;1.75
66336;PMS1003;53139;45.576;5.304;2023-05-07T12:25:24;3.00;2.75;2.75
66336;PMS1003;53139;45.576;5.304;2023-05-07T12:28:25;4.75;2.75;2.50
66336;PMS1003;53139;45.576;5.304;2023-05-07T12:31:26;4.00;4.00;3.00
66336;PMS1003;53139;45.576;5.304;2023-05-07T12:34:27;5.75;4.00;3.00
66336;PMS1003;53139;45.576;5.304;2023-05-07T12:37:28;3.75;3.00;2.50
66336;PMS1003;53139;45.576;5.304;2023-05-07T12:40:41;3.75;3.00;2.75
66336;PMS1003;53139;45.576;5.304;2023-05-07T12:43:55;3.25;2.75;1.75
66336;PMS1003;53139;45.576;5.304;2023-05-07T12:47:01;3.00;3.00;2.50
66336;PMS1003;53139;45.576;5.304;2023-05-07T12:50:02;2.50;2.50;2.00
66336;PMS1003;53139;45.576;5.304;2023-05-07T12:53:05;5.00;2.25;2.00
66336;PMS1003;53139;45.576;5.304;2023-05-07T12:56:07;5.50;2.50;2.25
66336;PMS1003;53139;45.576;5.304;2023-05-07T12:59:08;3.00;2.00;2.00
66336;PMS1003;53139;45.576;5.304;2023-05-07T13:02:09;3.00;3.00;2.75
66336;PMS1003;53139;45.576;5.304;2023-05-07T13:05:09;2.25;2.25;1.75
66336;PMS1003;53139;45.576;5.304;2023-05-07T13:08:10;3.00;2.00;2.00
66336;PMS1003;53139;45.576;5.304;2023-05-07T13:11:11;3.75;3.75;2.75
66336;PMS1003;53139;45.576;5.304;2023-05-07T13:14:12;3.50;3.00;3.00
66336;PMS1003;53139;45.576;5.304;2023-05-07T13:17:12;3.50;3.25;3.00
66336;PMS1003;53139;45.576;5.304;2023-05-07T13:20:13;2.50;1.50;1.00
66336;PMS1003;53139;45.576;5.304;2023-05-07T13:23:13;2.00;2.00;1.50
66336;PMS1003;53139;45.576;5.304;2023-05-07T13:26:13;2.00;1.50;1.00
66336;PMS1003;53139;45.576;5.304;2023-05-07T13:29:14;1.75;1.00;1.00
66336;PMS1003;53139;45.576;5.304;2023-05-07T13:32:14;2.00;2.00;1.00
66336;PMS1003;53139;45.576;5.304;2023-05-07T13:35:15;2.00;2.00;1.25
66336;PMS1003;53139;45.576;5.304;2023-05-07T13:38:16;2.50;1.75;1.75
66336;PMS1003;53139;45.576;5.304;2023-05-07T13:41:17;1.75;1.75;0.75
66336;PMS1003;53139;45.576;5.304;2023-05-07T13:44:18;2.50;2.50;1.75
66336;PMS1003;53139;45.576;5.304;2023-05-07T13:47:18;3.50;2.50;2.00
66336;PMS1003;53139;45.576;5.304;2023-05-07T13:50:18;2.25;2.25;2.00
66336;PMS1003;53139;45.576;5.304;2023-05-07T13:53:19;2.25;2.25;1.75
66336;PMS1003;53139;45.576;5.304;2023-05-07T13:56:19;2.75;2.75;2.75
66336;PMS1003;53139;45.576;5.304;2023-05-07T13:59:21;4.00;4.00;3.00
66336;PMS1003;53139;45.576;5.304;2023-05-07T14:02:21;2.25;2.25;1.75
66336;PMS1003;53139;45.576;5.304;2023-05-07T14:05:22;2.25;2.25;2.00
66336;PMS1003;53139;45.576;5.304;2023-05-07T14:08:23;5.00;4.00;2.50
66336;PMS1003;53139;45.576;5.304;2023-05-07T14:15:06;3.25;3.25;2.50
66336;PMS1003;53139;45.576;5.304;2023-05-07T14:19:03;5.50;4.00;3.50
66336;PMS1003;53139;45.576;5.304;2023-05-07T14:22:55;4.75;3.75;3.25
66336;PMS1003;53139;45.576;5.304;2023-05-07T14:26:36;5.25;5.00;4.00
66336;PMS1003;53139;45.576;5.304;2023-05-07T14:29:37;4.50;4.25;3.25
66336;PMS1003;53139;45.576;5.304;2023-05-07T14:32:38;5.00;5.00;4.00
66336;PMS1003;53139;45.576;5.304;2023-05-07T14:35:38;4.00;4.00;3.25
66336;PMS1003;53139;45.576;5.304;2023-05-07T14:38:39;4.00;4.00;3.75
66336;PMS1003;53139;45.576;5.304;2023-05-07T14:41:39;5.50;3.75;3.00
66336;PMS1003;53139;45.576;5.304;2023-05-07T14:44:54;4.50;4.50;3.00
66336;PMS1003;53139;45.576;5.304;2023-05-07T14:47:55;5.50;3.50;2.75
66336;PMS1003;53139;45.576;5.304;2023-05-07T14:51:58;5.00;4.00;3.75
66336;PMS1003;53139;45.576;5.304;2023-05-07T14:55:49;2.50;2.50;2.00
66336;PMS1003;53139;45.576;5.304;2023-05-07T14:59:07;1.75;1.75;1.75
66336;PMS1003;53139;45.576;5.304;2023-05-07T15:02:09;1.00;1.00;1.00
66336;PMS1003;53139;45.576;5.304;2023-05-07T15:05:11;2.00;2.00;1.75
66336;PMS1003;53139;45.576;5.304;2023-05-07T15:08:11;2.00;2.00;1.50
66336;PMS1003;53139;45.576;5.304;2023-05-07T15:11:12;1.00;1.00;1.00
66336;PMS1003;53139;45.576;5.304;2023-05-07T15:14:12;0.00;0.00;0.00
66336;PMS1003;53139;45.576;5.304;2023-05-07T15:17:13;0.75;0.75;0.50
66336;PMS1003;53139;45.576;5.304;2023-05-07T15:20:14;1.25;1.25;1.25
66336;PMS1003;53139;45.576;5.304;2023-05-07T15:23:15;3.25;3.25;2.50
66336;PMS1003;53139;45.576;5.304;2023-05-07T15:26:15;1.25;1.25;1.25
66336;PMS1003;53139;45.576;5.304;2023-05-07T15:29:15;1.00;1.00;1.00
66336;PMS1003;53139;45.576;5.304;2023-05-07T15:32:16;1.00;1.00;1.00
66336;PMS1003;53139;45.576;5.304;2023-05-07T15:35:16;1.25;1.25;1.25
66336;PMS1003;53139;45.576;5.304;2023-05-07T15:38:21;3.00;2.00;2.00
66336;PMS1003;53139;45.576;5.304;2023-05-07T15:41:21;1.00;1.00;0.75
66336;PMS1003;53139;45.576;5.304;2023-05-07T15:44:22;4.00;2.50;2.00
66336;PMS1003;53139;45.576;5.304;2023-05-07T15:47:26;1.75;0.75;0.25
66336;PMS1003;53139;45.576;5.304;2023-05-07T15:50:26;0.00;0.00;0.00
66336;PMS1003;53139;45.576;5.304;2023-05-07T15:53:28;9.50;5.75;4.75
66336;PMS1003;53139;45.576;5.304;2023-05-07T15:56:28;9.00;8.00;5.75
66336;PMS1003;53139;45.576;5.304;2023-05-07T15:59:32;2.75;2.75;2.00
66336;PMS1003;53139;45.576;5.304;2023-05-07T16:02:33;0.25;0.25;0.25
66336;PMS1003;53139;45.576;5.304;2023-05-07T16:05:33;0.50;0.50;0.50
66336;PMS1003;53139;45.576;5.304;2023-05-07T16:08:34;0.75;0.75;0.75
66336;PMS1003;53139;45.576;5.304;2023-05-07T16:11:35;1.00;1.00;1.00
66336;PMS1003;53139;45.576;5.304;2023-05-07T16:14:35;1.75;1.75;1.75
66336;PMS1003;53139;45.576;5.304;2023-05-07T16:17:36;0.25;0.00;0.00
66336;PMS1003;53139;45.576;5.304;2023-05-07T16:20:36;1.00;1.00;1.00
66336;PMS1003;53139;45.576;5.304;2023-05-07T16:23:37;0.50;0.50;0.50
66336;PMS1003;53139;45.576;5.304;2023-05-07T16:26:37;1.00;1.00;1.00
66336;PMS1003;53139;45.576;5.304;2023-05-07T16:29:37;0.50;0.50;0.50
66336;PMS1003;53139;45.576;5.304;2023-05-07T16:32:39;0.75;0.75;0.75
66336;PMS1003;53139;45.576;5.304;2023-05-07T16:35:39;1.75;1.75;0.75
66336;PMS1003;53139;45.576;5.304;2023-05-07T16:38:40;1.00;0.50;0.50
66336;PMS1003;53139;45.576;5.304;2023-05-07T16:41:40;0.50;0.50;0.25
66336;PMS1003;53139;45.576;5.304;2023-05-07T16:44:40;2.00;1.00;1.00
66336;PMS1003;53139;45.576;5.304;2023-05-07T16:47:41;0.50;0.50;0.25
66336;PMS1003;53139;45.576;5.304;2023-05-07T16:50:41;0.50;0.50;0.50
66336;PMS1003;53139;45.576;5.304;2023-05-07T16:53:43;2.00;2.00;1.25
66336;PMS1003;53139;45.576;5.304;2023-05-07T16:56:43;0.50;0.00;0.00
66336;PMS1003;53139;45.576;5.304;2023-05-07T16:59:44;0.75;0.25;0.00
66336;PMS1003;53139;45.576;5.304;2023-05-07T17:02:44;1.00;1.00;0.50
66336;PMS1003;53139;45.576;5.304;2023-05-07T17:05:45;3.00;1.50;1.25
66336;PMS1003;53139;45.576;5.304;2023-05-07T17:08:46;0.50;0.50;0.00
66336;PMS1003;53139;45.576;5.304;2023-05-07T17:11:46;0.75;0.00;0.00
66336;PMS1003;53139;45.576;5.304;2023-05-07T17:14:47;0.25;0.25;0.25
66336;PMS1003;53139;45.576;5.304;2023-05-07T17:17:47;1.00;1.00;1.00
66336;PMS1003;53139;45.576;5.304;2023-05-07T17:20:47;1.50;1.00;0.75
66336;PMS1003;53139;45.576;5.304;2023-05-07T17:23:48;1.75;1.75;1.25
66336;PMS1003;53139;45.576;5.304;2023-05-07T17:26:48;1.00;1.00;1.00
66336;PMS1003;53139;45.576;5.304;2023-05-07T17:29:48;0.50;0.50;0.50
66336;PMS1003;53139;45.576;5.304;2023-05-07T17:32:49;1.00;1.00;1.00
66336;PMS1003;53139;45.576;5.304;2023-05-07T17:35:51;2.00;2.00;1.00
66336;PMS1003;53139;45.576;5.304;2023-05-07T17:38:51;0.00;0.00;0.00
66336;PMS1003;53139;45.576;5.304;2023-05-07T17:41:52;1.00;1.00;1.00
66336;PMS1003;53139;45.576;5.304;2023-05-07T17:44:52;0.00;0.00;0.00
66336;PMS1003;53139;45.576;5.304;2023-05-07T17:47:54;2.00;0.25;0.25
66336;PMS1003;53139;45.576;5.304;2023-05-07T17:50:59;1.00;1.00;1.00
66336;PMS1003;53139;45.576;5.304;2023-05-07T17:54:02;1.75;1.75;1.00
66336;PMS1003;53139;45.576;5.304;2023-05-07T17:57:03;2.25;1.00;1.00
66336;PMS1003;53139;45.576;5.304;2023-05-07T18:00:04;1.00;1.00;1.00
66336;PMS1003;53139;45.576;5.304;2023-05-07T18:03:09;4.25;2.00;2.00
66336;PMS1003;53139;45.576;5.304;2023-05-07T18:06:09;2.00;2.00;1.00